sensor_id;sensor_type;location;lat;lon;timestamp;P1;durP1;ratioP1;P2;durP2;ratioP2
36443;SDS011;24692;45.642;13.806;2023-02-15T00:01:39;28.40;;;17.80;;
36443;SDS011;24692;45.642;13.806;2023-02-15T00:04:05;32.37;;;20.27;;
36443;SDS011;24692;45.642;13.806;2023-02-15T00:06:32;38.73;;;24.53;;
36443;SDS011;24692;45.642;13.806;2023-02-15T00:08:58;58.23;;;34.27;;
36443;SDS011;24692;45.642;13.806;2023-02-15T00:11:25;62.00;;;35.37;;
36443;SDS011;24692;45.642;13.806;2023-02-15T00:16:37;83.27;;;51.10;;
36443;SDS011;24692;45.642;13.806;2023-02-15T00:19:03;64.37;;;40.17;;
36443;SDS011;24692;45.642;13.806;2023-02-15T00:21:30;51.30;;;32.47;;
36443;SDS011;24692;45.642;13.806;2023-02-15T00:23:58;65.47;;;40.77;;
36443;SDS011;24692;45.642;13.806;2023-02-15T00:26:25;66.40;;;40.13;;
36443;SDS011;24692;45.642;13.806;2023-02-15T00:28:51;67.53;;;40.43;;
36443;SDS011;24692;45.642;13.806;2023-02-15T00:31:17;63.80;;;38.60;;
36443;SDS011;24692;45.642;13.806;2023-02-15T00:33:43;57.37;;;36.40;;
36443;SDS011;24692;45.642;13.806;2023-02-15T00:36:09;56.30;;;35.47;;
36443;SDS011;24692;45.642;13.806;2023-02-15T00:38:35;55.27;;;34.87;;
36443;SDS011;24692;45.642;13.806;2023-02-15T00:41:02;53.60;;;31.93;;
36443;SDS011;24692;45.642;13.806;2023-02-15T00:43:30;44.20;;;26.93;;
36443;SDS011;24692;45.642;13.806;2023-02-15T00:45:57;34.43;;;22.07;;
36443;SDS011;24692;45.642;13.806;2023-02-15T00:48:23;38.17;;;21.87;;
36443;SDS011;24692;45.642;13.806;2023-02-15T00:50:50;40.60;;;24.13;;
36443;SDS011;24692;45.642;13.806;2023-02-15T00:53:20;42.57;;;26.43;;
36443;SDS011;24692;45.642;13.806;2023-02-15T00:55:47;55.67;;;33.43;;
36443;SDS011;24692;45.642;13.806;2023-02-15T00:58:13;41.20;;;25.63;;
36443;SDS011;24692;45.642;13.806;2023-02-15T01:00:39;44.50;;;28.53;;
36443;SDS011;24692;45.642;13.806;2023-02-15T01:03:07;38.80;;;24.53;;
36443;SDS011;24692;45.642;13.806;2023-02-15T01:05:33;40.03;;;23.57;;
36443;SDS011;24692;45.642;13.806;2023-02-15T01:07:59;35.43;;;22.33;;
36443;SDS011;24692;45.642;13.806;2023-02-15T01:10:25;30.77;;;19.47;;
36443;SDS011;24692;45.642;13.806;2023-02-15T01:12:52;23.10;;;14.03;;
36443;SDS011;24692;45.642;13.806;2023-02-15T01:15:18;22.33;;;14.00;;
36443;SDS011;24692;45.642;13.806;2023-02-15T01:17:44;26.37;;;16.90;;
36443;SDS011;24692;45.642;13.806;2023-02-15T01:20:14;27.07;;;17.27;;
36443;SDS011;24692;45.642;13.806;2023-02-15T01:22:40;22.13;;;15.23;;
36443;SDS011;24692;45.642;13.806;2023-02-15T01:25:06;16.43;;;11.37;;
36443;SDS011;24692;45.642;13.806;2023-02-15T01:27:32;16.17;;;9.90;;
36443;SDS011;24692;45.642;13.806;2023-02-15T01:29:57;12.93;;;7.60;;
36443;SDS011;24692;45.642;13.806;2023-02-15T01:32:23;10.93;;;7.00;;
36443;SDS011;24692;45.642;13.806;2023-02-15T01:34:49;9.13;;;6.17;;
36443;SDS011;24692;45.642;13.806;2023-02-15T01:37:14;9.83;;;6.37;;
36443;SDS011;24692;45.642;13.806;2023-02-15T01:39:40;10.97;;;7.30;;
36443;SDS011;24692;45.642;13.806;2023-02-15T01:42:08;10.90;;;7.63;;
36443;SDS011;24692;45.642;13.806;2023-02-15T01:44:48;11.80;;;6.50;;
36443;SDS011;24692;45.642;13.806;2023-02-15T01:47:23;9.13;;;5.70;;
36443;SDS011;24692;45.642;13.806;2023-02-15T01:52:36;9.33;;;6.67;;
36443;SDS011;24692;45.642;13.806;2023-02-15T01:55:03;10.00;;;6.70;;
36443;SDS011;24692;45.642;13.806;2023-02-15T01:57:30;9.47;;;6.03;;
36443;SDS011;24692;45.642;13.806;2023-02-15T01:59:56;9.57;;;6.17;;
36443;SDS011;24692;45.642;13.806;2023-02-15T02:02:24;9.83;;;6.07;;
36443;SDS011;24692;45.642;13.806;2023-02-15T02:04:53;9.13;;;6.27;;
36443;SDS011;24692;45.642;13.806;2023-02-15T02:07:24;8.43;;;5.63;;
36443;SDS011;24692;45.642;13.806;2023-02-15T02:09:53;8.67;;;6.10;;
36443;SDS011;24692;45.642;13.806;2023-02-15T02:12:19;9.63;;;6.80;;
36443;SDS011;24692;45.642;13.806;2023-02-15T02:14:47;9.57;;;5.90;;
36443;SDS011;24692;45.642;13.806;2023-02-15T02:36:59;8.50;;;6.07;;
36443;SDS011;24692;45.642;13.806;2023-02-15T02:45:05;8.13;;;5.77;;
36443;SDS011;24692;45.642;13.806;2023-02-15T02:48:13;8.40;;;6.13;;
36443;SDS011;24692;45.642;13.806;2023-02-15T02:50:44;9.37;;;6.50;;
36443;SDS011;24692;45.642;13.806;2023-02-15T02:53:10;9.90;;;6.20;;
36443;SDS011;24692;45.642;13.806;2023-02-15T02:55:40;10.00;;;6.30;;
36443;SDS011;24692;45.642;13.806;2023-02-15T02:58:36;8.07;;;6.07;;
36443;SDS011;24692;45.642;13.806;2023-02-15T03:01:16;9.10;;;6.70;;
36443;SDS011;24692;45.642;13.806;2023-02-15T03:03:51;10.70;;;6.27;;
36443;SDS011;24692;45.642;13.806;2023-02-15T03:09:08;9.50;;;6.73;;
36443;SDS011;24692;45.642;13.806;2023-02-15T03:11:46;8.77;;;6.00;;
36443;SDS011;24692;45.642;13.806;2023-02-15T03:14:14;9.67;;;6.07;;
36443;SDS011;24692;45.642;13.806;2023-02-15T03:16:41;11.27;;;5.83;;
36443;SDS011;24692;45.642;13.806;2023-02-15T03:19:12;7.83;;;5.73;;
36443;SDS011;24692;45.642;13.806;2023-02-15T03:21:48;12.30;;;6.37;;
36443;SDS011;24692;45.642;13.806;2023-02-15T03:24:39;15.33;;;10.90;;
36443;SDS011;24692;45.642;13.806;2023-02-15T03:27:28;25.10;;;16.60;;
36443;SDS011;24692;45.642;13.806;2023-02-15T03:29:58;30.07;;;18.37;;
36443;SDS011;24692;45.642;13.806;2023-02-15T03:32:27;39.37;;;24.57;;
36443;SDS011;24692;45.642;13.806;2023-02-15T03:34:54;39.23;;;25.67;;
36443;SDS011;24692;45.642;13.806;2023-02-15T03:43:27;65.20;;;39.67;;
36443;SDS011;24692;45.642;13.806;2023-02-15T03:46:12;64.93;;;40.77;;
36443;SDS011;24692;45.642;13.806;2023-02-15T03:51:35;69.73;;;43.63;;
36443;SDS011;24692;45.642;13.806;2023-02-15T03:54:10;76.17;;;44.67;;
36443;SDS011;24692;45.642;13.806;2023-02-15T03:57:03;73.27;;;43.30;;
36443;SDS011;24692;45.642;13.806;2023-02-15T03:59:47;75.17;;;44.60;;
36443;SDS011;24692;45.642;13.806;2023-02-15T04:02:38;77.40;;;44.03;;
36443;SDS011;24692;45.642;13.806;2023-02-15T04:05:13;50.50;;;31.10;;
36443;SDS011;24692;45.642;13.806;2023-02-15T04:07:39;42.70;;;26.77;;
36443;SDS011;24692;45.642;13.806;2023-02-15T04:10:04;51.50;;;31.57;;
36443;SDS011;24692;45.642;13.806;2023-02-15T04:12:49;51.10;;;30.77;;
36443;SDS011;24692;45.642;13.806;2023-02-15T04:15:15;37.83;;;23.37;;
36443;SDS011;24692;45.642;13.806;2023-02-15T04:18:01;43.63;;;25.93;;
36443;SDS011;24692;45.642;13.806;2023-02-15T04:20:28;50.40;;;31.00;;
36443;SDS011;24692;45.642;13.806;2023-02-15T04:23:12;49.57;;;30.93;;
36443;SDS011;24692;45.642;13.806;2023-02-15T04:25:56;44.73;;;27.07;;
36443;SDS011;24692;45.642;13.806;2023-02-15T04:28:22;40.00;;;25.93;;
36443;SDS011;24692;45.642;13.806;2023-02-15T04:30:47;46.53;;;28.27;;
36443;SDS011;24692;45.642;13.806;2023-02-15T04:33:13;44.37;;;28.50;;
36443;SDS011;24692;45.642;13.806;2023-02-15T04:35:39;32.53;;;20.00;;
36443;SDS011;24692;45.642;13.806;2023-02-15T04:38:04;26.00;;;17.80;;
36443;SDS011;24692;45.642;13.806;2023-02-15T04:40:30;21.97;;;13.43;;
36443;SDS011;24692;45.642;13.806;2023-02-15T04:42:56;23.57;;;15.73;;
36443;SDS011;24692;45.642;13.806;2023-02-15T04:45:21;31.07;;;20.13;;
36443;SDS011;24692;45.642;13.806;2023-02-15T04:47:47;34.10;;;21.83;;
36443;SDS011;24692;45.642;13.806;2023-02-15T04:50:12;33.83;;;21.93;;
36443;SDS011;24692;45.642;13.806;2023-02-15T04:52:38;33.20;;;21.03;;
36443;SDS011;24692;45.642;13.806;2023-02-15T04:55:04;29.17;;;18.07;;
36443;SDS011;24692;45.642;13.806;2023-02-15T04:57:30;24.40;;;14.70;;
36443;SDS011;24692;45.642;13.806;2023-02-15T04:59:55;26.43;;;15.97;;
36443;SDS011;24692;45.642;13.806;2023-02-15T05:02:23;23.83;;;16.37;;
36443;SDS011;24692;45.642;13.806;2023-02-15T05:04:48;40.07;;;25.20;;
36443;SDS011;24692;45.642;13.806;2023-02-15T05:07:14;27.97;;;18.83;;
36443;SDS011;24692;45.642;13.806;2023-02-15T05:09:40;27.20;;;18.27;;
36443;SDS011;24692;45.642;13.806;2023-02-15T05:12:05;49.27;;;30.90;;
36443;SDS011;24692;45.642;13.806;2023-02-15T05:14:31;51.53;;;32.17;;
36443;SDS011;24692;45.642;13.806;2023-02-15T05:16:57;49.40;;;29.53;;
36443;SDS011;24692;45.642;13.806;2023-02-15T05:19:25;72.07;;;44.90;;
36443;SDS011;24692;45.642;13.806;2023-02-15T05:21:51;90.97;;;52.70;;
36443;SDS011;24692;45.642;13.806;2023-02-15T05:24:17;98.50;;;55.97;;
36443;SDS011;24692;45.642;13.806;2023-02-15T05:27:01;80.07;;;48.07;;
36443;SDS011;24692;45.642;13.806;2023-02-15T05:29:45;91.07;;;52.70;;
36443;SDS011;24692;45.642;13.806;2023-02-15T05:32:12;89.30;;;53.17;;
36443;SDS011;24692;45.642;13.806;2023-02-15T05:34:39;98.57;;;56.67;;
36443;SDS011;24692;45.642;13.806;2023-02-15T05:37:04;80.30;;;46.43;;
36443;SDS011;24692;45.642;13.806;2023-02-15T05:39:30;97.50;;;56.67;;
36443;SDS011;24692;45.642;13.806;2023-02-15T05:41:58;79.90;;;48.13;;
36443;SDS011;24692;45.642;13.806;2023-02-15T05:44:24;88.17;;;48.53;;
36443;SDS011;24692;45.642;13.806;2023-02-15T05:46:50;95.20;;;55.73;;
36443;SDS011;24692;45.642;13.806;2023-02-15T05:49:16;84.63;;;48.57;;
36443;SDS011;24692;45.642;13.806;2023-02-15T05:51:41;85.53;;;49.37;;
36443;SDS011;24692;45.642;13.806;2023-02-15T05:54:07;91.27;;;50.23;;
36443;SDS011;24692;45.642;13.806;2023-02-15T05:56:33;83.73;;;49.03;;
36443;SDS011;24692;45.642;13.806;2023-02-15T05:58:58;85.53;;;47.60;;
36443;SDS011;24692;45.642;13.806;2023-02-15T06:01:24;83.77;;;49.47;;
36443;SDS011;24692;45.642;13.806;2023-02-15T06:03:50;90.43;;;50.93;;
36443;SDS011;24692;45.642;13.806;2023-02-15T06:06:17;90.87;;;51.30;;
36443;SDS011;24692;45.642;13.806;2023-02-15T06:08:42;90.80;;;50.87;;
36443;SDS011;24692;45.642;13.806;2023-02-15T06:11:08;88.03;;;48.60;;
36443;SDS011;24692;45.642;13.806;2023-02-15T06:13:34;94.17;;;50.50;;
36443;SDS011;24692;45.642;13.806;2023-02-15T06:16:00;90.57;;;50.17;;
36443;SDS011;24692;45.642;13.806;2023-02-15T06:18:26;81.20;;;45.80;;
36443;SDS011;24692;45.642;13.806;2023-02-15T06:20:52;85.63;;;48.13;;
36443;SDS011;24692;45.642;13.806;2023-02-15T06:23:17;88.20;;;48.13;;
36443;SDS011;24692;45.642;13.806;2023-02-15T06:25:44;85.13;;;49.40;;
36443;SDS011;24692;45.642;13.806;2023-02-15T06:28:10;87.43;;;49.27;;
36443;SDS011;24692;45.642;13.806;2023-02-15T06:30:36;83.47;;;48.00;;
36443;SDS011;24692;45.642;13.806;2023-02-15T06:33:02;86.43;;;48.97;;
36443;SDS011;24692;45.642;13.806;2023-02-15T06:35:28;70.03;;;41.17;;
36443;SDS011;24692;45.642;13.806;2023-02-15T06:37:53;50.97;;;31.27;;
36443;SDS011;24692;45.642;13.806;2023-02-15T06:40:19;47.47;;;29.27;;
36443;SDS011;24692;45.642;13.806;2023-02-15T06:42:45;45.50;;;28.17;;
36443;SDS011;24692;45.642;13.806;2023-02-15T06:45:10;50.50;;;30.33;;
36443;SDS011;24692;45.642;13.806;2023-02-15T06:47:36;49.07;;;29.50;;
36443;SDS011;24692;45.642;13.806;2023-02-15T06:50:03;52.93;;;32.20;;
36443;SDS011;24692;45.642;13.806;2023-02-15T06:52:30;48.73;;;31.17;;
36443;SDS011;24692;45.642;13.806;2023-02-15T06:54:56;56.43;;;35.57;;
36443;SDS011;24692;45.642;13.806;2023-02-15T06:57:23;53.57;;;38.07;;
36443;SDS011;24692;45.642;13.806;2023-02-15T06:59:48;51.10;;;36.47;;
36443;SDS011;24692;45.642;13.806;2023-02-15T07:02:14;49.50;;;33.13;;
36443;SDS011;24692;45.642;13.806;2023-02-15T07:04:40;46.40;;;30.27;;
36443;SDS011;24692;45.642;13.806;2023-02-15T07:07:10;40.08;;;30.02;;
36443;SDS011;24692;45.642;13.806;2023-02-15T07:09:36;33.90;;;23.10;;
36443;SDS011;24692;45.642;13.806;2023-02-15T07:12:03;34.78;;;23.20;;
36443;SDS011;24692;45.642;13.806;2023-02-15T07:14:47;34.67;;;23.13;;
36443;SDS011;24692;45.642;13.806;2023-02-15T07:17:14;27.90;;;19.27;;
36443;SDS011;24692;45.642;13.806;2023-02-15T07:19:40;27.50;;;19.80;;
36443;SDS011;24692;45.642;13.806;2023-02-15T07:22:06;32.80;;;20.17;;
36443;SDS011;24692;45.642;13.806;2023-02-15T07:24:35;39.95;;;27.13;;
36443;SDS011;24692;45.642;13.806;2023-02-15T07:27:03;31.50;;;22.92;;
36443;SDS011;24692;45.642;13.806;2023-02-15T07:29:30;34.23;;;20.93;;
36443;SDS011;24692;45.642;13.806;2023-02-15T07:31:55;33.13;;;23.75;;
36443;SDS011;24692;45.642;13.806;2023-02-15T07:34:21;28.80;;;23.45;;
36443;SDS011;24692;45.642;13.806;2023-02-15T07:36:47;31.05;;;23.42;;
36443;SDS011;24692;45.642;13.806;2023-02-15T07:39:15;30.35;;;22.83;;
36443;SDS011;24692;45.642;13.806;2023-02-15T07:41:41;29.38;;;22.25;;
36443;SDS011;24692;45.642;13.806;2023-02-15T07:44:10;26.65;;;21.63;;
36443;SDS011;24692;45.642;13.806;2023-02-15T07:46:37;28.73;;;22.58;;
36443;SDS011;24692;45.642;13.806;2023-02-15T07:49:03;23.92;;;20.42;;
36443;SDS011;24692;45.642;13.806;2023-02-15T07:51:28;24.23;;;19.55;;
36443;SDS011;24692;45.642;13.806;2023-02-15T07:53:54;23.83;;;20.90;;
36443;SDS011;24692;45.642;13.806;2023-02-15T07:56:20;25.20;;;21.20;;
36443;SDS011;24692;45.642;13.806;2023-02-15T07:58:45;24.70;;;19.05;;
36443;SDS011;24692;45.642;13.806;2023-02-15T08:01:17;23.00;;;19.15;;
36443;SDS011;24692;45.642;13.806;2023-02-15T08:03:44;24.25;;;20.48;;
36443;SDS011;24692;45.642;13.806;2023-02-15T08:06:09;26.83;;;19.75;;
36443;SDS011;24692;45.642;13.806;2023-02-15T08:08:38;30.05;;;21.40;;
36443;SDS011;24692;45.642;13.806;2023-02-15T08:13:51;28.63;;;22.25;;
36443;SDS011;24692;45.642;13.806;2023-02-15T08:16:53;24.42;;;20.48;;
36443;SDS011;24692;45.642;13.806;2023-02-15T08:19:21;28.52;;;21.88;;
36443;SDS011;24692;45.642;13.806;2023-02-15T08:21:52;30.70;;;22.90;;
36443;SDS011;24692;45.642;13.806;2023-02-15T08:24:22;36.15;;;26.38;;
36443;SDS011;24692;45.642;13.806;2023-02-15T08:26:49;37.10;;;26.40;;
36443;SDS011;24692;45.642;13.806;2023-02-15T08:29:17;30.55;;;23.95;;
36443;SDS011;24692;45.642;13.806;2023-02-15T08:31:44;29.10;;;23.38;;
36443;SDS011;24692;45.642;13.806;2023-02-15T08:34:11;29.75;;;22.15;;
36443;SDS011;24692;45.642;13.806;2023-02-15T08:36:39;28.08;;;21.95;;
36443;SDS011;24692;45.642;13.806;2023-02-15T08:39:06;26.42;;;20.50;;
36443;SDS011;24692;45.642;13.806;2023-02-15T08:41:35;24.92;;;20.58;;
36443;SDS011;24692;45.642;13.806;2023-02-15T08:44:06;25.35;;;21.73;;
36443;SDS011;24692;45.642;13.806;2023-02-15T08:46:33;25.88;;;20.95;;
36443;SDS011;24692;45.642;13.806;2023-02-15T08:49:01;24.85;;;22.13;;
36443;SDS011;24692;45.642;13.806;2023-02-15T08:51:28;36.63;;;20.13;;
36443;SDS011;24692;45.642;13.806;2023-02-15T08:54:01;25.95;;;22.08;;
36443;SDS011;24692;45.642;13.806;2023-02-15T08:56:29;30.08;;;18.58;;
36443;SDS011;24692;45.642;13.806;2023-02-15T08:59:00;30.42;;;18.40;;
36443;SDS011;24692;45.642;13.806;2023-02-15T09:01:33;24.63;;;19.35;;
36443;SDS011;24692;45.642;13.806;2023-02-15T09:04:26;24.13;;;17.98;;
36443;SDS011;24692;45.642;13.806;2023-02-15T09:07:01;28.67;;;19.00;;
36443;SDS011;24692;45.642;13.806;2023-02-15T09:09:29;28.70;;;21.02;;
36443;SDS011;24692;45.642;13.806;2023-02-15T09:11:57;27.73;;;21.27;;
36443;SDS011;24692;45.642;13.806;2023-02-15T09:14:23;32.30;;;25.33;;
36443;SDS011;24692;45.642;13.806;2023-02-15T09:16:51;32.13;;;25.98;;
36443;SDS011;24692;45.642;13.806;2023-02-15T09:19:18;30.17;;;23.40;;
36443;SDS011;24692;45.642;13.806;2023-02-15T09:21:45;31.63;;;27.40;;
36443;SDS011;24692;45.642;13.806;2023-02-15T09:24:11;34.25;;;25.50;;
36443;SDS011;24692;45.642;13.806;2023-02-15T09:26:41;30.30;;;24.85;;
36443;SDS011;24692;45.642;13.806;2023-02-15T09:29:09;31.00;;;26.90;;
36443;SDS011;24692;45.642;13.806;2023-02-15T09:31:39;33.22;;;26.70;;
36443;SDS011;24692;45.642;13.806;2023-02-15T09:34:09;35.90;;;27.65;;
36443;SDS011;24692;45.642;13.806;2023-02-15T09:36:36;32.53;;;26.45;;
36443;SDS011;24692;45.642;13.806;2023-02-15T09:39:22;32.75;;;27.52;;
36443;SDS011;24692;45.642;13.806;2023-02-15T09:50:55;35.88;;;28.23;;
36443;SDS011;24692;45.642;13.806;2023-02-15T10:01:53;41.17;;;32.10;;
36443;SDS011;24692;45.642;13.806;2023-02-15T10:04:33;44.45;;;32.95;;
36443;SDS011;24692;45.642;13.806;2023-02-15T10:18:12;46.63;;;39.15;;
36443;SDS011;24692;45.642;13.806;2023-02-15T10:21:00;49.55;;;39.88;;
36443;SDS011;24692;45.642;13.806;2023-02-15T10:26:19;53.03;;;42.30;;
36443;SDS011;24692;45.642;13.806;2023-02-15T10:28:58;59.05;;;45.63;;
36443;SDS011;24692;45.642;13.806;2023-02-15T10:31:58;56.05;;;44.40;;
36443;SDS011;24692;45.642;13.806;2023-02-15T10:34:50;54.97;;;44.03;;
36443;SDS011;24692;45.642;13.806;2023-02-15T10:40:17;63.15;;;47.95;;
36443;SDS011;24692;45.642;13.806;2023-02-15T10:45:47;63.97;;;48.58;;
36443;SDS011;24692;45.642;13.806;2023-02-15T10:57:09;64.95;;;50.45;;
36443;SDS011;24692;45.642;13.806;2023-02-15T11:00:05;61.25;;;48.63;;
36443;SDS011;24692;45.642;13.806;2023-02-15T11:08:19;59.90;;;46.05;;
36443;SDS011;24692;45.642;13.806;2023-02-15T11:10:48;60.55;;;45.95;;
36443;SDS011;24692;45.642;13.806;2023-02-15T11:13:17;60.20;;;44.35;;
36443;SDS011;24692;45.642;13.806;2023-02-15T11:15:45;59.38;;;44.85;;
36443;SDS011;24692;45.642;13.806;2023-02-15T11:23:27;53.60;;;41.53;;
36443;SDS011;24692;45.642;13.806;2023-02-15T11:26:00;58.83;;;43.55;;
36443;SDS011;24692;45.642;13.806;2023-02-15T11:28:31;58.47;;;44.03;;
36443;SDS011;24692;45.642;13.806;2023-02-15T11:31:12;55.50;;;41.17;;
36443;SDS011;24692;45.642;13.806;2023-02-15T11:33:58;53.50;;;42.58;;
36443;SDS011;24692;45.642;13.806;2023-02-15T11:36:29;59.30;;;41.38;;
36443;SDS011;24692;45.642;13.806;2023-02-15T11:39:01;53.03;;;41.63;;
36443;SDS011;24692;45.642;13.806;2023-02-15T11:41:31;59.78;;;40.17;;
36443;SDS011;24692;45.642;13.806;2023-02-15T11:46:33;45.97;;;36.35;;
36443;SDS011;24692;45.642;13.806;2023-02-15T11:48:59;52.03;;;40.67;;
36443;SDS011;24692;45.642;13.806;2023-02-15T11:51:25;52.38;;;40.97;;
36443;SDS011;24692;45.642;13.806;2023-02-15T11:53:52;55.05;;;42.83;;
36443;SDS011;24692;45.642;13.806;2023-02-15T11:56:20;55.78;;;43.50;;
36443;SDS011;24692;45.642;13.806;2023-02-15T11:58:50;60.08;;;45.15;;
36443;SDS011;24692;45.642;13.806;2023-02-15T12:01:35;59.10;;;45.67;;
36443;SDS011;24692;45.642;13.806;2023-02-15T12:06:47;62.05;;;47.25;;
36443;SDS011;24692;45.642;13.806;2023-02-15T12:11:49;64.85;;;49.38;;
36443;SDS011;24692;45.642;13.806;2023-02-15T12:14:15;66.30;;;49.60;;
36443;SDS011;24692;45.642;13.806;2023-02-15T12:16:53;67.60;;;51.38;;
36443;SDS011;24692;45.642;13.806;2023-02-15T12:19:39;68.47;;;51.83;;
36443;SDS011;24692;45.642;13.806;2023-02-15T12:22:17;65.70;;;49.65;;
36443;SDS011;24692;45.642;13.806;2023-02-15T12:24:45;67.18;;;51.25;;
36443;SDS011;24692;45.642;13.806;2023-02-15T12:29:50;67.80;;;50.25;;
36443;SDS011;24692;45.642;13.806;2023-02-15T12:32:21;63.17;;;46.78;;
36443;SDS011;24692;45.642;13.806;2023-02-15T12:34:50;62.20;;;46.40;;
36443;SDS011;24692;45.642;13.806;2023-02-15T12:37:21;61.92;;;46.42;;
36443;SDS011;24692;45.642;13.806;2023-02-15T12:39:57;61.47;;;44.42;;
36443;SDS011;24692;45.642;13.806;2023-02-15T12:42:24;62.80;;;47.90;;
36443;SDS011;24692;45.642;13.806;2023-02-15T12:45:01;60.80;;;44.00;;
36443;SDS011;24692;45.642;13.806;2023-02-15T12:47:29;54.95;;;40.70;;
36443;SDS011;24692;45.642;13.806;2023-02-15T12:52:47;50.92;;;39.55;;
36443;SDS011;24692;45.642;13.806;2023-02-15T13:00:47;54.95;;;43.00;;
36443;SDS011;24692;45.642;13.806;2023-02-15T13:03:16;54.47;;;41.58;;
36443;SDS011;24692;45.642;13.806;2023-02-15T13:05:45;56.33;;;38.85;;
36443;SDS011;24692;45.642;13.806;2023-02-15T13:08:17;56.13;;;38.58;;
36443;SDS011;24692;45.642;13.806;2023-02-15T13:13:47;57.53;;;38.75;;
36443;SDS011;24692;45.642;13.806;2023-02-15T13:16:16;50.47;;;36.58;;
36443;SDS011;24692;45.642;13.806;2023-02-15T13:18:56;50.70;;;35.15;;
36443;SDS011;24692;45.642;13.806;2023-02-15T13:21:25;47.20;;;35.30;;
36443;SDS011;24692;45.642;13.806;2023-02-15T13:26:25;51.88;;;35.72;;
36443;SDS011;24692;45.642;13.806;2023-02-15T13:28:58;50.22;;;34.05;;
36443;SDS011;24692;45.642;13.806;2023-02-15T13:31:33;50.22;;;35.10;;
36443;SDS011;24692;45.642;13.806;2023-02-15T13:34:06;48.03;;;34.35;;
36443;SDS011;24692;45.642;13.806;2023-02-15T13:36:47;48.95;;;35.38;;
36443;SDS011;24692;45.642;13.806;2023-02-15T13:47:27;49.75;;;34.20;;
36443;SDS011;24692;45.642;13.806;2023-02-15T13:56:02;48.25;;;34.70;;
36443;SDS011;24692;45.642;13.806;2023-02-15T13:58:59;49.10;;;34.97;;
36443;SDS011;24692;45.642;13.806;2023-02-15T14:01:31;52.85;;;36.45;;
36443;SDS011;24692;45.642;13.806;2023-02-15T14:10:11;54.85;;;36.38;;
36443;SDS011;24692;45.642;13.806;2023-02-15T14:15:27;60.60;;;39.35;;
36443;SDS011;24692;45.642;13.806;2023-02-15T14:20:47;56.90;;;36.70;;
36443;SDS011;24692;45.642;13.806;2023-02-15T14:25:44;55.05;;;34.88;;
36443;SDS011;24692;45.642;13.806;2023-02-15T14:28:26;56.38;;;35.72;;
36443;SDS011;24692;45.642;13.806;2023-02-15T14:30:58;50.42;;;32.20;;
36443;SDS011;24692;45.642;13.806;2023-02-15T14:36:02;51.57;;;32.13;;
36443;SDS011;24692;45.642;13.806;2023-02-15T14:38:42;52.25;;;34.00;;
36443;SDS011;24692;45.642;13.806;2023-02-15T14:44:17;50.30;;;32.33;;
36443;SDS011;24692;45.642;13.806;2023-02-15T14:49:47;52.17;;;30.60;;
36443;SDS011;24692;45.642;13.806;2023-02-15T14:52:13;53.20;;;31.63;;
36443;SDS011;24692;45.642;13.806;2023-02-15T15:03:00;54.43;;;32.90;;
36443;SDS011;24692;45.642;13.806;2023-02-15T15:05:18;53.57;;;33.03;;
36443;SDS011;24692;45.642;13.806;2023-02-15T15:07:58;55.67;;;32.17;;
36443;SDS011;24692;45.642;13.806;2023-02-15T15:12:57;51.00;;;30.80;;
36443;SDS011;24692;45.642;13.806;2023-02-15T15:23:33;49.03;;;27.40;;
36443;SDS011;24692;45.642;13.806;2023-02-15T15:28:19;47.60;;;24.90;;
36443;SDS011;24692;45.642;13.806;2023-02-15T15:39:39;52.80;;;30.57;;
36443;SDS011;24692;45.642;13.806;2023-02-15T15:42:18;50.33;;;29.87;;
36443;SDS011;24692;45.642;13.806;2023-02-15T15:50:30;61.20;;;36.30;;
36443;SDS011;24692;45.642;13.806;2023-02-15T15:52:57;60.87;;;37.93;;
36443;SDS011;24692;45.642;13.806;2023-02-15T15:55:25;68.37;;;39.23;;
36443;SDS011;24692;45.642;13.806;2023-02-15T15:57:57;72.27;;;43.17;;
36443;SDS011;24692;45.642;13.806;2023-02-15T16:02:54;68.43;;;43.50;;
36443;SDS011;24692;45.642;13.806;2023-02-15T16:05:22;72.27;;;44.83;;
36443;SDS011;24692;45.642;13.806;2023-02-15T16:07:48;75.80;;;49.53;;
36443;SDS011;24692;45.642;13.806;2023-02-15T16:10:21;73.63;;;44.97;;
36443;SDS011;24692;45.642;13.806;2023-02-15T16:12:53;71.40;;;45.27;;
36443;SDS011;24692;45.642;13.806;2023-02-15T16:15:24;73.70;;;45.53;;
36443;SDS011;24692;45.642;13.806;2023-02-15T16:17:56;68.97;;;42.07;;
36443;SDS011;24692;45.642;13.806;2023-02-15T16:20:33;67.27;;;40.17;;
36443;SDS011;24692;45.642;13.806;2023-02-15T16:23:22;63.83;;;35.77;;
36443;SDS011;24692;45.642;13.806;2023-02-15T16:26:03;58.10;;;33.50;;
36443;SDS011;24692;45.642;13.806;2023-02-15T16:28:50;69.27;;;41.17;;
36443;SDS011;24692;45.642;13.806;2023-02-15T16:31:17;71.90;;;44.63;;
36443;SDS011;24692;45.642;13.806;2023-02-15T16:33:44;73.17;;;44.50;;
36443;SDS011;24692;45.642;13.806;2023-02-15T16:36:31;65.33;;;37.47;;
36443;SDS011;24692;45.642;13.806;2023-02-15T16:39:06;61.50;;;33.97;;
36443;SDS011;24692;45.642;13.806;2023-02-15T16:41:34;59.93;;;34.23;;
36443;SDS011;24692;45.642;13.806;2023-02-15T16:44:03;61.33;;;35.67;;
36443;SDS011;24692;45.642;13.806;2023-02-15T16:46:42;63.90;;;33.17;;
36443;SDS011;24692;45.642;13.806;2023-02-15T16:49:45;66.83;;;35.60;;
36443;SDS011;24692;45.642;13.806;2023-02-15T16:52:07;62.03;;;35.03;;
36443;SDS011;24692;45.642;13.806;2023-02-15T16:54:41;63.70;;;35.17;;
36443;SDS011;24692;45.642;13.806;2023-02-15T16:57:31;68.43;;;35.50;;
36443;SDS011;24692;45.642;13.806;2023-02-15T17:00:03;64.87;;;35.07;;
36443;SDS011;24692;45.642;13.806;2023-02-15T17:02:33;60.13;;;33.93;;
36443;SDS011;24692;45.642;13.806;2023-02-15T17:05:21;62.87;;;35.20;;
36443;SDS011;24692;45.642;13.806;2023-02-15T17:07:50;67.93;;;37.93;;
36443;SDS011;24692;45.642;13.806;2023-02-15T17:10:36;65.80;;;37.67;;
36443;SDS011;24692;45.642;13.806;2023-02-15T17:13:09;66.93;;;39.20;;
36443;SDS011;24692;45.642;13.806;2023-02-15T17:15:37;67.60;;;40.37;;
36443;SDS011;24692;45.642;13.806;2023-02-15T17:20:45;67.27;;;39.33;;
36443;SDS011;24692;45.642;13.806;2023-02-15T17:26:12;66.03;;;40.03;;
36443;SDS011;24692;45.642;13.806;2023-02-15T17:31:17;73.50;;;40.30;;
36443;SDS011;24692;45.642;13.806;2023-02-15T17:33:44;76.80;;;42.47;;
36443;SDS011;24692;45.642;13.806;2023-02-15T17:41:31;67.77;;;38.87;;
36443;SDS011;24692;45.642;13.806;2023-02-15T17:43:59;67.90;;;38.17;;
36443;SDS011;24692;45.642;13.806;2023-02-15T17:46:25;80.03;;;46.13;;
36443;SDS011;24692;45.642;13.806;2023-02-15T17:48:54;76.50;;;43.60;;
36443;SDS011;24692;45.642;13.806;2023-02-15T17:51:21;74.97;;;42.33;;
36443;SDS011;24692;45.642;13.806;2023-02-15T17:53:47;69.40;;;41.13;;
36443;SDS011;24692;45.642;13.806;2023-02-15T17:56:32;66.40;;;37.67;;
36443;SDS011;24692;45.642;13.806;2023-02-15T17:58:59;62.57;;;37.67;;
36443;SDS011;24692;45.642;13.806;2023-02-15T18:01:25;66.40;;;38.40;;
36443;SDS011;24692;45.642;13.806;2023-02-15T18:04:13;59.97;;;34.97;;
36443;SDS011;24692;45.642;13.806;2023-02-15T18:06:58;61.73;;;35.10;;